»·PEaware :: SWA4363 KLAS-KBUR

SWA4363 :: KLAS-KBUR

FLIGHT INFORMATION

Flight Status: Arrived
Operator:
Southwest Airlines
More flights by this operator :: More flights under this callsign
Pilot: Luke W. (11553)
Aircraft: BOEING 737-800
(B738)
More flights by this aircraft type
Origin: KLAS McCarran Intl
United States
Destination: KBUR Bob Hope-Burbank
United States
More flights between these airports :: More routes between these airports
Route: +BOACH8 WHIGG KREME JANNY3
File this flight plan on PilotEdge
Remarks: Would like the Four Stacks Visual Approach if possible
Altitude:
(Current/Filed)
28,000ft
Speed:
(Current/Filed)
462kts
Departed: 19-Nov-17 09:55 PM
Arrived: 19-Nov-17 10:52 PM
Distance/Time
Traveled:
193nm/0:56
Distance/Time
To Go:
Arrived

Flight Plot

Page will automatically refresh every two minutes.

Flight plan parsing failed; only flown route is shown


Map Options




Map Legend


Flown Route
Filed Route
Departure Airport
Arrival Airport
Navaid (VOR, NDB)
Fix

Horizontal Profiles

Position Reports

Time Latitude Longitude Heading Altitude Ground
Speed
19-Nov-17 21:23 36.085328 -115.136713 0 2119ft 0kts
19-Nov-17 21:24 36.085328 -115.136713 0 2119ft 0kts
19-Nov-17 21:25 36.085328 -115.136713 0 2119ft 0kts
19-Nov-17 21:26 36.085328 -115.136713 0 2119ft 0kts
19-Nov-17 21:27 36.085328 -115.136713 0 2119ft 0kts
19-Nov-17 21:28 36.085328 -115.136713 0 2119ft 0kts
19-Nov-17 21:29 36.085328 -115.136713 0 2119ft 0kts
19-Nov-17 21:30 36.085328 -115.136713 0 2119ft 0kts
19-Nov-17 21:31 36.085328 -115.136713 0 2119ft 0kts
19-Nov-17 21:32 36.085328 -115.136713 0 2119ft 0kts
19-Nov-17 21:33 36.085328 -115.136713 0 2119ft 0kts
19-Nov-17 21:34 36.085328 -115.136713 0 2119ft 0kts
19-Nov-17 21:35 36.085328 -115.136713 0 2119ft 0kts
19-Nov-17 21:36 36.085328 -115.136713 0 2119ft 0kts
19-Nov-17 21:37 36.085328 -115.136713 0 2119ft 0kts
19-Nov-17 21:38 36.085328 -115.136713 0 2119ft 0kts
19-Nov-17 21:39 36.085328 -115.136713 0 2119ft 0kts
19-Nov-17 21:40 36.085328 -115.136713 0 2119ft 0kts
19-Nov-17 21:41 36.085328 -115.136713 0 2119ft 0kts
19-Nov-17 21:42 36.085328 -115.136713 0 2119ft 0kts
19-Nov-17 21:43 36.085328 -115.136713 0 2119ft 0kts
19-Nov-17 21:44 36.085328 -115.136713 0 2119ft 0kts
19-Nov-17 21:45 36.085328 -115.136713 0 2119ft 0kts
19-Nov-17 21:46 36.085328 -115.136713 0 2119ft 0kts
19-Nov-17 21:47 36.085204 -115.136714 0 2119ft 2kts
19-Nov-17 21:48 36.084665 -115.136823 64 2119ft 2kts
19-Nov-17 21:49 36.084649 -115.136997 90 2119ft 0kts
19-Nov-17 21:50 36.084649 -115.136997 90 2119ft 0kts
19-Nov-17 21:51 36.084649 -115.136997 90 2119ft 0kts
19-Nov-17 21:52 36.084649 -115.136950 90 2119ft 0kts
19-Nov-17 21:53 36.084657 -115.135120 90 2119ft 11kts
19-Nov-17 21:54 36.081640 -115.132932 180 2119ft 14kts
19-Nov-17 21:55 36.078899 -115.132100 89 2118ft 9kts
19-Nov-17 21:56 36.078272 -115.128726 90 2118ft 14kts
19-Nov-17 21:57 36.078269 -115.122943 95 2119ft 14kts
19-Nov-17 21:58 36.077422 -115.121434 141 2119ft 0kts
19-Nov-17 21:59 36.077005 -115.121269 178 2119ft 8kts
19-Nov-17 22:00 36.076426 -115.139124 269 2121ft 163kts
19-Nov-17 22:01 36.075954 -115.200370 264 4067ft 213kts
19-Nov-17 22:02 36.043953 -115.267983 201 6219ft 264kts
19-Nov-17 22:03 35.978400 -115.298271 197 7975ft 273kts
19-Nov-17 22:04 35.903594 -115.309669 184 10838ft 296kts
19-Nov-17 22:05 35.825826 -115.311625 174 13716ft 310kts
19-Nov-17 22:06 35.745115 -115.302328 173 16787ft 321kts
19-Nov-17 22:07 35.659217 -115.321750 218 19997ft 351kts
19-Nov-17 22:13 35.235059 -115.844979 218 23152ft 372kts
19-Nov-17 22:14 35.161550 -115.931616 218 23152ft 372kts
19-Nov-17 22:16 35.031678 -116.084865 218 23152ft 372kts
19-Nov-17 22:18 34.901092 -116.264106 238 23153ft 385kts
19-Nov-17 22:19 34.872579 -116.337403 239 23159ft 385kts
19-Nov-17 22:20 34.845520 -116.406968 239 23160ft 385kts
19-Nov-17 22:21 34.817796 -116.478317 239 23160ft 385kts
19-Nov-17 22:22 34.787909 -116.563795 252 23028ft 394kts
19-Nov-17 22:23 34.777147 -116.662590 258 22426ft 393kts
19-Nov-17 22:24 34.770241 -116.734461 258 21948ft 389kts
19-Nov-17 22:25 34.764351 -116.820254 263 21324ft 397kts
19-Nov-17 22:26 34.750626 -116.906536 250 20921ft 377kts
19-Nov-17 22:27 34.744266 -116.981846 257 20350ft 377kts
19-Nov-17 22:28 34.731634 -117.095969 258 19452ft 371kts
19-Nov-17 22:29 34.723198 -117.177686 258 18799ft 366kts
19-Nov-17 22:30 34.714193 -117.266008 258 18178ft 362kts
19-Nov-17 22:31 34.705582 -117.351507 258 17587ft 358kts
19-Nov-17 22:32 34.696928 -117.438485 258 16978ft 354kts
19-Nov-17 22:33 34.689087 -117.518210 259 16422ft 354kts
19-Nov-17 22:34 34.678824 -117.623324 259 15677ft 349kts
19-Nov-17 22:35 34.670812 -117.699197 258 15127ft 345kts
19-Nov-17 22:36 34.664359 -117.759602 258 14683ft 343kts
19-Nov-17 22:37 34.655062 -117.847070 258 14034ft 339kts
19-Nov-17 22:38 34.645890 -117.931498 258 13165ft 332kts
19-Nov-17 22:39 34.638493 -117.998926 258 12356ft 326kts
19-Nov-17 22:40 34.627161 -118.076282 256 11705ft 319kts
19-Nov-17 22:41 34.619095 -118.131864 255 11100ft 315kts
19-Nov-17 22:42 34.603675 -118.188365 251 10419ft 310kts
19-Nov-17 22:43 34.589876 -118.253113 250 9573ft 298kts
19-Nov-17 22:44 34.577380 -118.306998 251 8730ft 269kts
19-Nov-17 22:45 34.564043 -118.366081 252 7997ft 264kts
19-Nov-17 22:46 34.553586 -118.413118 254 7989ft 268kts
19-Nov-17 22:47 34.543096 -118.469532 254 7330ft 265kts
19-Nov-17 22:48 34.520012 -118.526048 213 6620ft 254kts
19-Nov-17 22:49 34.465156 -118.537467 171 6558ft 248kts
19-Nov-17 22:50 34.415700 -118.525178 169 6051ft 213kts
19-Nov-17 22:51 34.370785 -118.514131 169 5465ft 216kts
19-Nov-17 22:52 34.328600 -118.492075 134 4857ft 215kts
19-Nov-17 22:53 34.302047 -118.441329 120 4038ft 195kts
19-Nov-17 22:54 34.277331 -118.394695 143 2963ft 172kts
19-Nov-17 22:55 34.247104 -118.370428 160 1916ft 149kts
19-Nov-17 22:56 34.215893 -118.361502 168 904ft 141kts
19-Nov-17 22:57 34.198846 -118.356119 90 738ft 5kts
19-Nov-17 22:58 34.198664 -118.355310 159 738ft 3kts
19-Nov-17 22:59 34.197206 -118.353767 91 738ft 13kts
19-Nov-17 23:00 34.196854 -118.352866 179 738ft 0kts
19-Nov-17 23:01 34.196855 -118.352866 179 738ft 0kts
19-Nov-17 23:02 34.196855 -118.352866 179 738ft 0kts

Navigation Log

Ident Type
Flight plan parsing failed, navigation log unavailable